aviador You're here:

KOAJ Decoded Metar

JACKSONVILLE in NC, USA
Report Time2018-01-21 05:56:00
UTC Time2018-01-21 06:46:04
Flight Rules vfr VFR
Wind190° at 05 kt
W.Decomp.*RWY 23: 4.2 kt HW 2.6 kt LCW
W.Rank190° ranks 3
Current wind is below 190° avg. (7.1)
Visibility9999 m
Phenomena:N/A
Clouds:N/A
Expected CloudBase > 1,200 ft AGL from Temp-Dew spread
CeilingNone
Temp02°C (ISA -13)
Dew Point-1°C (81% RH)
AAT-1.9°C
QNH1023 hPa
Density Alt-1,726 ft
Elevation95 ft
Report Wrong Elevation
Raw Report
METAR KOAJ 210556Z AUTO 19005KT 10SM CLR 02/M01 A3022 RMK AO2 SLP237
T00221011 10083 20017 58000 FZRANO=

Extra information for KOAJ:More info

Metar Taf Metar & Taf Last 4 Metars F.Rules Stats Wind Profile Meteogram Temp Stats Airport Information Weather charts Add Link Nearby VenuesMetar ALERT Operation Metar Decoded Social comments

AIRNAV info for KOAJ